Time;durP1;ratioP1;P1;durP2;ratioP2;P2;SDS_P1;SDS_P2;PMS_P1;PMS_P2;Temp;Humidity;BMP_temperature;BMP_pressure;BME280_temperature;BME280_humidity;BME280_pressure;Samples;Min_cycle;Max_cycle;Signal;HPM_P1;HPM_P2
2021/08/13 00:02:15;;;;;;;14.05;11.07;;;;;;;;;;5091149;28;20083;-75
2021/08/13 00:04:41;;;;;;;14.60;11.75;;;;;;;;;;5087102;28;20123;-74
2021/08/13 00:07:08;;;;;;;15.32;12.07;;;;;;;;;;5091523;28;20036;-74
2021/08/13 00:09:34;;;;;;;15.70;12.70;;;;;;;;;;5086698;28;20044;-73
2021/08/13 00:12:00;;;;;;;14.80;12.52;;;;;;;;;;5090212;28;20055;-74
2021/08/13 00:14:26;;;;;;;16.98;12.90;;;;;;;;;;5091227;28;20036;-74
2021/08/13 00:16:52;;;;;;;15.00;12.98;;;;;;;;;;5086969;28;20040;-74
2021/08/13 00:19:19;;;;;;;18.85;13.25;;;;;;;;;;5090997;28;20044;-74
2021/08/13 00:21:45;;;;;;;16.25;13.88;;;;;;;;;;5089523;28;20044;-74
2021/08/13 00:24:11;;;;;;;16.48;13.45;;;;;;;;;;5088876;28;20460;-74
2021/08/13 00:26:37;;;;;;;16.83;13.35;;;;;;;;;;5091549;28;20036;-73
2021/08/13 00:29:03;;;;;;;16.23;13.35;;;;;;;;;;5090935;28;20036;-73
2021/08/13 00:31:29;;;;;;;17.58;13.88;;;;;;;;;;5089556;28;20082;-74
2021/08/13 00:33:55;;;;;;;19.35;14.70;;;;;;;;;;5088197;28;20059;-74
2021/08/13 00:36:22;;;;;;;15.88;14.07;;;;;;;;;;5090894;28;20044;-74
2021/08/13 00:38:48;;;;;;;16.02;13.65;;;;;;;;;;5088944;28;20044;-74
2021/08/13 00:41:14;;;;;;;16.33;14.18;;;;;;;;;;5090333;28;20185;-74
2021/08/13 00:43:40;;;;;;;19.45;15.40;;;;;;;;;;5091121;28;20040;-73
2021/08/13 00:46:06;;;;;;;19.55;16.23;;;;;;;;;;5084253;28;20040;-74
2021/08/13 00:48:32;;;;;;;19.90;15.57;;;;;;;;;;5088613;28;20032;-74
2021/08/13 00:50:59;;;;;;;20.20;17.05;;;;;;;;;;5090963;28;20105;-74
2021/08/13 00:53:26;;;;;;;22.90;16.92;;;;;;;;;;5086607;28;20044;-74
2021/08/13 00:55:53;;;;;;;19.23;16.67;;;;;;;;;;5088625;28;20113;-74
2021/08/13 00:58:21;;;;;;;21.13;16.00;;;;;;;;;;5090947;28;20036;-74
2021/08/13 01:00:47;;;;;;;24.85;17.60;;;;;;;;;;5090632;28;20051;-74
2021/08/13 01:03:14;;;;;;;23.23;18.23;;;;;;;;;;5090187;28;20070;-74
2021/08/13 01:05:40;;;;;;;23.15;17.92;;;;;;;;;;5089858;28;20048;-74
2021/08/13 01:08:06;;;;;;;25.52;18.55;;;;;;;;;;5091135;28;20032;-74
2021/08/13 01:10:35;;;;;;;25.45;18.02;;;;;;;;;;5089753;28;20078;-74
2021/08/13 01:13:12;;;;;;;21.88;17.25;;;;;;;;;;5088624;28;20048;-74
2021/08/13 01:15:42;;;;;;;22.77;18.50;;;;;;;;;;5088017;28;20040;-74
2021/08/13 01:18:13;;;;;;;26.95;19.48;;;;;;;;;;5088976;28;20043;-73
2021/08/13 01:21:00;;;;;;;26.95;19.45;;;;;;;;;;5089144;28;20123;-74
2021/08/13 01:23:53;;;;;;;25.95;19.60;;;;;;;;;;5087572;28;20043;-74
2021/08/13 01:26:19;;;;;;;28.50;19.77;;;;;;;;;;5089505;28;20051;-74
2021/08/13 01:28:49;;;;;;;25.80;20.10;;;;;;;;;;5089664;28;20498;-73
2021/08/13 01:31:25;;;;;;;30.20;19.42;;;;;;;;;;5100326;28;20044;-74
2021/08/13 01:33:59;;;;;;;26.15;18.83;;;;;;;;;;5089740;28;20932;-74
2021/08/13 01:36:27;;;;;;;23.55;17.10;;;;;;;;;;5087360;28;20051;-74
2021/08/13 01:38:54;;;;;;;21.88;18.83;;;;;;;;;;5094693;28;20039;-73
2021/08/13 01:41:20;;;;;;;23.15;18.83;;;;;;;;;;5089392;28;20070;-74
2021/08/13 01:43:48;;;;;;;24.27;18.80;;;;;;;;;;5096269;28;20032;-73
2021/08/13 01:46:15;;;;;;;23.27;18.33;;;;;;;;;;5086189;28;20152;-73
2021/08/13 01:48:41;;;;;;;25.58;18.90;;;;;;;;;;5086733;28;20067;-74
2021/08/13 01:51:08;;;;;;;27.00;19.77;;;;;;;;;;5089387;28;20044;-74
2021/08/13 01:53:36;;;;;;;27.35;18.08;;;;;;;;;;5088682;28;20036;-74
2021/08/13 01:56:03;;;;;;;26.33;19.20;;;;;;;;;;5089305;28;20497;-74
2021/08/13 01:58:30;;;;;;;24.23;17.08;;;;;;;;;;5087371;28;20051;-74
2021/08/13 02:00:56;;;;;;;22.80;18.10;;;;;;;;;;5087663;28;20035;-74
2021/08/13 02:03:22;;;;;;;23.48;19.00;;;;;;;;;;5088235;28;20471;-74
2021/08/13 02:05:48;;;;;;;23.67;18.60;;;;;;;;;;5088919;28;20040;-73
2021/08/13 02:08:15;;;;;;;23.55;19.08;;;;;;;;;;5089471;28;20051;-74
2021/08/13 02:10:44;;;;;;;23.80;17.67;;;;;;;;;;5088468;28;20040;-74
2021/08/13 02:13:11;;;;;;;24.15;18.27;;;;;;;;;;5088172;28;20047;-74
2021/08/13 02:15:39;;;;;;;26.02;19.33;;;;;;;;;;5087770;28;20054;-74
2021/08/13 02:18:09;;;;;;;32.53;21.20;;;;;;;;;;5087728;28;20071;-73
2021/08/13 02:20:37;;;;;;;29.92;21.10;;;;;;;;;;5086510;28;20119;-73
2021/08/13 02:23:04;;;;;;;28.00;20.80;;;;;;;;;;5088532;28;20491;-73
2021/08/13 02:25:30;;;;;;;27.90;20.27;;;;;;;;;;5084664;28;20119;-74
2021/08/13 02:27:56;;;;;;;27.10;20.30;;;;;;;;;;5087712;28;20032;-74
2021/08/13 02:30:23;;;;;;;28.42;20.45;;;;;;;;;;5088842;28;20076;-74
2021/08/13 02:32:49;;;;;;;28.75;21.55;;;;;;;;;;5089412;28;20028;-74
2021/08/13 02:35:15;;;;;;;31.95;21.88;;;;;;;;;;5089775;28;20085;-74
2021/08/13 02:37:48;;;;;;;25.80;18.95;;;;;;;;;;5088730;28;20115;-74
2021/08/13 02:40:17;;;;;;;30.08;21.40;;;;;;;;;;5088574;28;20044;-74
2021/08/13 02:42:52;;;;;;;29.38;21.40;;;;;;;;;;5087226;28;20043;-73
2021/08/13 02:45:21;;;;;;;28.08;20.48;;;;;;;;;;5089698;28;20053;-74
2021/08/13 02:47:48;;;;;;;28.27;20.10;;;;;;;;;;5087032;28;20036;-73
2021/08/13 02:50:16;;;;;;;30.73;20.75;;;;;;;;;;5089036;28;20114;-73
2021/08/13 02:52:53;;;;;;;26.70;20.17;;;;;;;;;;5084813;28;20109;-73
2021/08/13 02:55:22;;;;;;;29.27;21.23;;;;;;;;;;5088107;28;20051;-74
2021/08/13 02:57:51;;;;;;;33.22;21.50;;;;;;;;;;5088135;28;20036;-74
2021/08/13 03:00:18;;;;;;;27.45;21.50;;;;;;;;;;5084719;28;20040;-74
2021/08/13 03:02:46;;;;;;;28.13;20.85;;;;;;;;;;5087855;28;20032;-74
2021/08/13 03:05:12;;;;;;;29.85;20.85;;;;;;;;;;5087084;28;20093;-73
2021/08/13 03:07:38;;;;;;;38.63;23.42;;;;;;;;;;5121442;28;20051;-74
2021/08/13 03:10:04;;;;;;;33.45;22.58;;;;;;;;;;5088078;28;20453;-73
2021/08/13 03:12:31;;;;;;;32.72;23.48;;;;;;;;;;5088550;28;20044;-74
2021/08/13 03:14:59;;;;;;;31.80;22.90;;;;;;;;;;5087978;28;20075;-74
2021/08/13 03:17:25;;;;;;;33.10;23.42;;;;;;;;;;5092142;28;20059;-74
2021/08/13 03:19:51;;;;;;;38.28;24.42;;;;;;;;;;5091846;28;20372;-73
2021/08/13 03:22:21;;;;;;;33.40;22.55;;;;;;;;;;5092413;28;20048;-73
2021/08/13 03:24:48;;;;;;;30.67;21.88;;;;;;;;;;5092363;28;20054;-74
2021/08/13 03:27:15;;;;;;;34.67;23.88;;;;;;;;;;5090615;28;20097;-73
2021/08/13 03:29:41;;;;;;;38.95;25.40;;;;;;;;;;5091478;28;20048;-73
2021/08/13 03:32:07;;;;;;;39.63;24.52;;;;;;;;;;5089548;28;20058;-74
2021/08/13 03:34:33;;;;;;;40.83;25.13;;;;;;;;;;5092119;28;20415;-74
2021/08/13 03:37:01;;;;;;;34.58;21.63;;;;;;;;;;5090205;28;20044;-73
2021/08/13 03:39:27;;;;;;;38.00;24.23;;;;;;;;;;5090504;28;20094;-74
2021/08/13 03:41:53;;;;;;;37.92;24.95;;;;;;;;;;5091039;28;20043;-74
2021/08/13 03:44:19;;;;;;;35.97;22.67;;;;;;;;;;5091118;28;20119;-74
2021/08/13 03:46:46;;;;;;;29.50;22.10;;;;;;;;;;5090996;28;20036;-74
2021/08/13 03:49:12;;;;;;;32.13;22.30;;;;;;;;;;5091214;28;20040;-73
2021/08/13 03:51:38;;;;;;;33.90;22.63;;;;;;;;;;5090452;28;20406;-73
2021/08/13 03:54:05;;;;;;;32.72;21.55;;;;;;;;;;5090748;28;20525;-74
2021/08/13 03:56:35;;;;;;;33.85;23.73;;;;;;;;;;5090992;28;20073;-73
2021/08/13 03:59:02;;;;;;;33.80;22.25;;;;;;;;;;5090197;28;20039;-73
2021/08/13 04:01:30;;;;;;;34.05;22.27;;;;;;;;;;5089480;28;20120;-73
2021/08/13 04:03:57;;;;;;;35.42;23.58;;;;;;;;;;5091349;28;20376;-73
2021/08/13 04:06:24;;;;;;;29.73;21.20;;;;;;;;;;5106585;28;20115;-73
2021/08/13 04:08:50;;;;;;;35.53;23.95;;;;;;;;;;5091233;28;20040;-74
2021/08/13 04:11:16;;;;;;;37.15;24.85;;;;;;;;;;5090544;28;20044;-74
2021/08/13 04:13:42;;;;;;;39.42;23.92;;;;;;;;;;5092224;28;20052;-74
2021/08/13 04:16:08;;;;;;;31.02;22.77;;;;;;;;;;5090058;28;20043;-73
2021/08/13 04:18:35;;;;;;;39.53;23.60;;;;;;;;;;5091522;28;20094;-73
2021/08/13 04:21:01;;;;;;;36.53;24.45;;;;;;;;;;5091049;28;20391;-73
2021/08/13 04:23:27;;;;;;;42.08;25.80;;;;;;;;;;5089529;28;20071;-74
2021/08/13 04:25:53;;;;;;;42.00;25.33;;;;;;;;;;5090967;28;20517;-74
2021/08/13 04:28:20;;;;;;;36.10;23.92;;;;;;;;;;5089019;28;20491;-73
2021/08/13 04:30:46;;;;;;;37.15;25.40;;;;;;;;;;5089727;28;20044;-74
2021/08/13 04:33:14;;;;;;;45.40;26.75;;;;;;;;;;5088715;28;20048;-74
2021/08/13 04:35:40;;;;;;;40.00;25.35;;;;;;;;;;5088555;28;20428;-74
2021/08/13 04:38:07;;;;;;;45.78;26.13;;;;;;;;;;5091148;28;20364;-74
2021/08/13 04:40:33;;;;;;;41.67;25.80;;;;;;;;;;5089989;28;20051;-74
2021/08/13 04:42:59;;;;;;;41.65;26.48;;;;;;;;;;5091281;28;20052;-74
2021/08/13 04:45:26;;;;;;;47.13;27.48;;;;;;;;;;5088327;28;20039;-73
2021/08/13 04:47:52;;;;;;;43.33;28.08;;;;;;;;;;5089709;28;20040;-77
2021/08/13 04:50:22;;;;;;;40.83;26.85;;;;;;;;;;5089605;28;20047;-73
2021/08/13 04:52:49;;;;;;;41.30;26.25;;;;;;;;;;5089388;28;20112;-73
2021/08/13 04:55:21;;;;;;;42.05;26.45;;;;;;;;;;5096961;28;20052;-73
2021/08/13 04:57:48;;;;;;;38.80;26.10;;;;;;;;;;5111476;27;20069;-74
2021/08/13 05:00:16;;;;;;;40.78;27.08;;;;;;;;;;5085893;28;20059;-74
2021/08/13 05:02:43;;;;;;;42.53;27.63;;;;;;;;;;5085501;28;20109;-75
2021/08/13 05:05:19;;;;;;;38.60;26.85;;;;;;;;;;5085538;28;20047;-76
2021/08/13 05:07:45;;;;;;;43.80;28.73;;;;;;;;;;5089309;28;20052;-76
2021/08/13 05:10:12;;;;;;;40.10;26.88;;;;;;;;;;5090102;28;20532;-74
2021/08/13 05:12:39;;;;;;;38.92;27.45;;;;;;;;;;5088926;28;20044;-73
2021/08/13 05:15:06;;;;;;;42.42;28.77;;;;;;;;;;5093390;28;20032;-74
2021/08/13 05:17:33;;;;;;;45.83;29.27;;;;;;;;;;5091726;28;20590;-74
2021/08/13 05:20:00;;;;;;;40.28;27.80;;;;;;;;;;5088732;28;20130;-73
2021/08/13 05:22:32;;;;;;;42.10;28.50;;;;;;;;;;5088245;28;20368;-74
2021/08/13 05:25:00;;;;;;;42.10;27.63;;;;;;;;;;5086905;28;20085;-74
2021/08/13 05:27:34;;;;;;;34.35;25.38;;;;;;;;;;5087660;28;20047;-73
2021/08/13 05:30:00;;;;;;;35.58;25.38;;;;;;;;;;5088389;28;20524;-75
2021/08/13 05:32:30;;;;;;;31.63;24.00;;;;;;;;;;5086405;28;20563;-76
2021/08/13 05:34:57;;;;;;;36.38;25.83;;;;;;;;;;5088693;28;20040;-74
2021/08/13 05:37:24;;;;;;;32.28;25.27;;;;;;;;;;5081549;28;20064;-76
2021/08/13 05:40:07;;;;;;;29.50;23.35;;;;;;;;;;5079706;28;20040;-74
2021/08/13 05:42:33;;;;;;;33.65;23.35;;;;;;;;;;5083997;28;20072;-73
2021/08/13 05:44:59;;;;;;;34.33;26.70;;;;;;;;;;5082931;28;20470;-72
2021/08/13 05:47:25;;;;;;;32.13;24.60;;;;;;;;;;5087566;28;20040;-75
2021/08/13 05:49:52;;;;;;;28.90;23.13;;;;;;;;;;5086564;28;20036;-75
2021/08/13 05:52:18;;;;;;;31.38;24.10;;;;;;;;;;5078883;28;20089;-75
2021/08/13 05:54:44;;;;;;;29.40;23.42;;;;;;;;;;5082718;28;20498;-75
2021/08/13 05:57:10;;;;;;;26.88;22.15;;;;;;;;;;5087782;28;20122;-74
2021/08/13 05:59:37;;;;;;;27.73;21.17;;;;;;;;;;5090493;28;20047;-76
2021/08/13 06:02:03;;;;;;;32.08;22.73;;;;;;;;;;5071188;28;20046;-75
2021/08/13 06:04:29;;;;;;;27.42;21.92;;;;;;;;;;5088976;28;20048;-75
2021/08/13 06:06:55;;;;;;;29.67;22.70;;;;;;;;;;5075712;28;20047;-75
2021/08/13 06:09:21;;;;;;;28.92;23.00;;;;;;;;;;5075573;28;20044;-76
2021/08/13 06:11:48;;;;;;;28.65;22.58;;;;;;;;;;5084858;28;20147;-76
2021/08/13 06:14:14;;;;;;;26.88;22.55;;;;;;;;;;5075917;28;20040;-75
2021/08/13 06:16:40;;;;;;;30.58;23.27;;;;;;;;;;5082578;28;20094;-76
2021/08/13 06:19:06;;;;;;;25.73;21.35;;;;;;;;;;5077979;28;20040;-75
2021/08/13 06:21:32;;;;;;;26.38;23.08;;;;;;;;;;5088212;28;20100;-75
2021/08/13 06:23:58;;;;;;;25.10;20.58;;;;;;;;;;5074852;28;20396;-76
2021/08/13 06:26:24;;;;;;;29.00;22.60;;;;;;;;;;5081334;28;20071;-76
2021/08/13 06:28:51;;;;;;;26.25;21.55;;;;;;;;;;5071963;28;20169;-75
2021/08/13 06:31:17;;;;;;;26.95;22.73;;;;;;;;;;5079771;28;20071;-75
2021/08/13 06:33:43;;;;;;;27.25;22.10;;;;;;;;;;5084387;28;20060;-76
2021/08/13 06:36:10;;;;;;;27.35;22.23;;;;;;;;;;5087142;28;20044;-76
2021/08/13 06:38:36;;;;;;;31.58;23.13;;;;;;;;;;5076680;28;20040;-76
2021/08/13 06:41:03;;;;;;;29.85;23.75;;;;;;;;;;5093559;28;20036;-76
2021/08/13 06:43:29;;;;;;;27.80;22.58;;;;;;;;;;5072801;28;20049;-76
2021/08/13 06:45:56;;;;;;;28.77;23.40;;;;;;;;;;5077185;28;20048;-76
2021/08/13 06:48:22;;;;;;;30.50;23.17;;;;;;;;;;5077842;28;20044;-75
2021/08/13 06:50:48;;;;;;;30.02;23.17;;;;;;;;;;5086078;28;20036;-76
2021/08/13 06:53:14;;;;;;;28.83;22.45;;;;;;;;;;5091798;28;20040;-75
2021/08/13 06:55:40;;;;;;;28.15;21.65;;;;;;;;;;5082913;28;20492;-75
2021/08/13 06:58:06;;;;;;;28.45;23.17;;;;;;;;;;5082800;28;20045;-75
2021/08/13 07:00:33;;;;;;;28.67;22.58;;;;;;;;;;5089098;28;20503;-75
2021/08/13 07:02:59;;;;;;;30.85;21.65;;;;;;;;;;5074537;28;20044;-76
2021/08/13 07:05:25;;;;;;;27.33;22.17;;;;;;;;;;5090286;28;20047;-75
2021/08/13 07:07:52;;;;;;;26.33;21.70;;;;;;;;;;5108241;28;20376;-76
2021/08/13 07:10:18;;;;;;;27.02;20.65;;;;;;;;;;5094413;28;20112;-75
2021/08/13 07:12:44;;;;;;;24.98;19.85;;;;;;;;;;5094281;28;20437;-76
2021/08/13 07:15:11;;;;;;;28.23;20.27;;;;;;;;;;5085562;28;20089;-76
2021/08/13 07:17:37;;;;;;;23.50;19.77;;;;;;;;;;5084948;28;20050;-76
2021/08/13 07:20:04;;;;;;;24.42;19.55;;;;;;;;;;5086188;28;20047;-76
2021/08/13 07:22:32;;;;;;;29.23;19.40;;;;;;;;;;5086370;28;20051;-76
2021/08/13 07:24:58;;;;;;;24.60;18.73;;;;;;;;;;5075346;28;20047;-76
2021/08/13 07:27:27;;;;;;;23.65;19.52;;;;;;;;;;5087112;28;20065;-76
2021/08/13 07:29:53;;;;;;;23.15;18.13;;;;;;;;;;5090178;28;20083;-76
2021/08/13 07:32:19;;;;;;;23.50;18.02;;;;;;;;;;5092016;28;20230;-76
2021/08/13 07:34:46;;;;;;;22.55;17.40;;;;;;;;;;5091262;28;20051;-76
2021/08/13 07:37:12;;;;;;;20.15;16.80;;;;;;;;;;5076961;28;20139;-76
2021/08/13 07:39:38;;;;;;;22.30;18.38;;;;;;;;;;5081146;28;20044;-76
2021/08/13 07:42:04;;;;;;;19.90;16.75;;;;;;;;;;5085534;28;20036;-76
2021/08/13 07:44:30;;;;;;;22.27;18.05;;;;;;;;;;5089874;28;20040;-75
2021/08/13 07:46:56;;;;;;;27.40;18.55;;;;;;;;;;5090441;28;20044;-76
2021/08/13 07:49:23;;;;;;;20.27;15.93;;;;;;;;;;5075088;28;20044;-74
2021/08/13 07:51:49;;;;;;;21.63;16.85;;;;;;;;;;5086730;28;20128;-76
2021/08/13 07:54:15;;;;;;;23.13;16.52;;;;;;;;;;5080847;28;20082;-75
2021/08/13 07:56:41;;;;;;;25.27;17.80;;;;;;;;;;5086200;28;20063;-76
2021/08/13 07:59:07;;;;;;;20.02;15.98;;;;;;;;;;5085222;28;20044;-76
2021/08/13 08:01:34;;;;;;;21.88;16.52;;;;;;;;;;5087273;28;20043;-76
2021/08/13 08:04:00;;;;;;;23.25;17.15;;;;;;;;;;5090739;28;20040;-76
2021/08/13 08:06:29;;;;;;;21.13;16.35;;;;;;;;;;5092185;28;20044;-77
2021/08/13 08:08:56;;;;;;;19.73;15.88;;;;;;;;;;5086010;28;20044;-80
2021/08/13 08:11:22;;;;;;;22.13;15.98;;;;;;;;;;5092647;28;20094;-76
2021/08/13 08:13:48;;;;;;;21.75;15.77;;;;;;;;;;5081274;28;20124;-77
2021/08/13 08:16:14;;;;;;;20.88;16.30;;;;;;;;;;5076718;28;20677;-77
2021/08/13 08:18:40;;;;;;;21.13;16.13;;;;;;;;;;5073750;28;20135;-76
2021/08/13 08:21:07;;;;;;;28.27;16.60;;;;;;;;;;5080203;28;20044;-74
2021/08/13 08:23:33;;;;;;;22.77;16.90;;;;;;;;;;5093543;28;20051;-76
2021/08/13 08:25:59;;;;;;;22.13;14.63;;;;;;;;;;5077035;28;20496;-74
2021/08/13 08:28:25;;;;;;;19.23;14.73;;;;;;;;;;5088954;28;20054;-75
2021/08/13 08:30:51;;;;;;;18.00;14.82;;;;;;;;;;5073885;28;20040;-76
2021/08/13 08:33:18;;;;;;;23.77;16.30;;;;;;;;;;5119623;27;20156;-78
2021/08/13 08:35:44;;;;;;;21.00;15.82;;;;;;;;;;5083915;28;20458;-76
2021/08/13 08:38:10;;;;;;;22.52;15.38;;;;;;;;;;5086403;28;20063;-74
2021/08/13 08:40:38;;;;;;;19.98;16.00;;;;;;;;;;5084941;28;20131;-73
2021/08/13 08:43:06;;;;;;;19.42;15.48;;;;;;;;;;5077917;28;20044;-73
2021/08/13 08:45:34;;;;;;;23.25;15.98;;;;;;;;;;5081107;28;20049;-73
2021/08/13 08:48:01;;;;;;;20.42;15.77;;;;;;;;;;5073100;28;20142;-74
2021/08/13 08:50:28;;;;;;;19.48;14.65;;;;;;;;;;5074420;28;20047;-73
2021/08/13 08:52:54;;;;;;;18.92;14.48;;;;;;;;;;5089814;28;20206;-74
2021/08/13 08:55:21;;;;;;;15.88;13.60;;;;;;;;;;5076528;28;20044;-74
2021/08/13 08:57:48;;;;;;;14.07;11.25;;;;;;;;;;5092050;28;20072;-75
2021/08/13 09:00:15;;;;;;;14.20;10.48;;;;;;;;;;5079065;28;20047;-75
2021/08/13 09:02:43;;;;;;;12.45;9.77;;;;;;;;;;5077888;28;20040;-74
2021/08/13 09:05:10;;;;;;;10.70;9.60;;;;;;;;;;5076903;28;20033;-75
2021/08/13 09:07:36;;;;;;;13.07;9.40;;;;;;;;;;5082738;28;20041;-76
2021/08/13 09:10:03;;;;;;;11.65;9.43;;;;;;;;;;5101585;28;20040;-75
2021/08/13 09:12:29;;;;;;;11.93;9.23;;;;;;;;;;5078744;28;20052;-76
2021/08/13 09:14:55;;;;;;;14.82;9.60;;;;;;;;;;5071452;28;20079;-75
2021/08/13 09:17:29;;;;;;;11.07;10.02;;;;;;;;;;5088043;28;20044;-72
2021/08/13 09:19:55;;;;;;;11.55;9.63;;;;;;;;;;5072312;28;20056;-73
2021/08/13 09:22:22;;;;;;;11.18;8.82;;;;;;;;;;5090227;28;20045;-74
2021/08/13 09:24:50;;;;;;;11.95;9.20;;;;;;;;;;5072763;28;20075;-76
2021/08/13 09:27:27;;;;;;;9.77;8.48;;;;;;;;;;5097235;28;20040;-79
2021/08/13 09:30:09;;;;;;;11.40;7.57;;;;;;;;;;5079451;28;20047;-76
2021/08/13 09:32:35;;;;;;;12.88;7.28;;;;;;;;;;5086309;28;20044;-73
2021/08/13 09:35:03;;;;;;;14.13;6.85;;;;;;;;;;5085194;28;20067;-73
2021/08/13 09:37:29;;;;;;;8.73;5.97;;;;;;;;;;5072933;28;20045;-73
2021/08/13 09:39:56;;;;;;;11.40;6.43;;;;;;;;;;5093237;28;20395;-73
2021/08/13 09:42:32;;;;;;;10.25;5.82;;;;;;;;;;5083356;28;20044;-72
2021/08/13 09:45:02;;;;;;;9.23;5.20;;;;;;;;;;5082427;28;20112;-72
2021/08/13 09:47:41;;;;;;;9.55;5.25;;;;;;;;;;5087128;28;20071;-72
2021/08/13 09:50:08;;;;;;;8.88;5.20;;;;;;;;;;5102832;28;20032;-73
2021/08/13 09:52:34;;;;;;;7.10;4.70;;;;;;;;;;5088202;28;20041;-72
2021/08/13 09:55:14;;;;;;;11.10;5.53;;;;;;;;;;5079030;28;20036;-74
2021/08/13 09:57:45;;;;;;;12.55;5.22;;;;;;;;;;5071906;28;20484;-72
2021/08/13 10:00:12;;;;;;;7.47;4.55;;;;;;;;;;5075000;28;20093;-71
2021/08/13 10:02:39;;;;;;;11.18;5.53;;;;;;;;;;5080734;28;20040;-74
2021/08/13 10:05:16;;;;;;;7.90;5.28;;;;;;;;;;5071611;28;20049;-74
2021/08/13 10:07:52;;;;;;;9.93;5.80;;;;;;;;;;5081745;28;20119;-73
2021/08/13 10:10:26;;;;;;;10.60;5.10;;;;;;;;;;5085584;28;20044;-74
2021/08/13 10:12:52;;;;;;;10.32;5.20;;;;;;;;;;5072061;28;20181;-74
2021/08/13 10:15:34;;;;;;;8.15;5.38;;;;;;;;;;5087029;28;20108;-74
2021/08/13 10:18:01;;;;;;;8.05;5.13;;;;;;;;;;5076870;28;20048;-72
2021/08/13 10:20:29;;;;;;;9.23;4.90;;;;;;;;;;5085019;28;20440;-74
2021/08/13 10:22:55;;;;;;;8.13;5.13;;;;;;;;;;5087134;28;20051;-74
2021/08/13 10:25:21;;;;;;;8.50;5.10;;;;;;;;;;5077429;28;20491;-75
2021/08/13 10:27:48;;;;;;;10.10;5.28;;;;;;;;;;5088383;28;20403;-73
2021/08/13 10:30:18;;;;;;;12.10;4.97;;;;;;;;;;5078618;28;20070;-73
2021/08/13 10:32:45;;;;;;;7.38;4.47;;;;;;;;;;5083793;28;20044;-74
2021/08/13 10:35:14;;;;;;;11.10;5.28;;;;;;;;;;5078281;28;20389;-73
2021/08/13 10:37:42;;;;;;;6.72;4.30;;;;;;;;;;5073368;28;20110;-72
2021/08/13 10:40:08;;;;;;;7.75;4.22;;;;;;;;;;5085939;28;20372;-73
2021/08/13 10:42:36;;;;;;;8.18;4.50;;;;;;;;;;5078719;28;20037;-73
2021/08/13 10:45:05;;;;;;;6.00;4.10;;;;;;;;;;5079467;28;20044;-73
2021/08/13 10:47:34;;;;;;;11.43;4.65;;;;;;;;;;5082266;28;20144;-74
2021/08/13 10:50:02;;;;;;;8.50;3.85;;;;;;;;;;5073694;28;20047;-73
2021/08/13 10:52:35;;;;;;;8.23;3.80;;;;;;;;;;5105177;28;20044;-74
2021/08/13 10:55:02;;;;;;;5.88;3.88;;;;;;;;;;5084004;28;20036;-73
2021/08/13 10:57:55;;;;;;;8.55;4.40;;;;;;;;;;5081703;28;20044;-74
2021/08/13 11:00:22;;;;;;;10.77;4.93;;;;;;;;;;5079350;28;20076;-75
2021/08/13 11:03:07;;;;;;;6.75;3.85;;;;;;;;;;5085662;28;20058;-73
2021/08/13 11:05:49;;;;;;;8.15;3.47;;;;;;;;;;5080486;28;20052;-74
2021/08/13 11:08:15;;;;;;;7.40;3.47;;;;;;;;;;5072230;28;20503;-74
2021/08/13 11:10:41;;;;;;;11.02;4.50;;;;;;;;;;5096189;28;20411;-76
2021/08/13 11:13:15;;;;;;;9.60;3.72;;;;;;;;;;5103923;28;20098;-73
2021/08/13 11:15:41;;;;;;;7.13;3.40;;;;;;;;;;5072349;28;20494;-74
2021/08/13 11:18:27;;;;;;;8.55;3.67;;;;;;;;;;5073186;28;20056;-74
2021/08/13 11:20:53;;;;;;;8.25;3.10;;;;;;;;;;5079750;28;20047;-74
2021/08/13 11:23:19;;;;;;;6.78;2.92;;;;;;;;;;5088411;28;20110;-73
2021/08/13 11:25:47;;;;;;;7.43;3.05;;;;;;;;;;5072388;28;20049;-72
2021/08/13 11:28:20;;;;;;;11.55;3.75;;;;;;;;;;5081611;28;20101;-73
2021/08/13 11:30:47;;;;;;;13.10;3.25;;;;;;;;;;5081850;28;20050;-73
2021/08/13 11:33:37;;;;;;;9.93;3.20;;;;;;;;;;5074950;28;20475;-73
2021/08/13 11:36:03;;;;;;;9.77;3.22;;;;;;;;;;5079482;28;20056;-72
2021/08/13 11:38:45;;;;;;;9.13;3.30;;;;;;;;;;5088122;28;20045;-73
2021/08/13 11:41:29;;;;;;;8.55;3.05;;;;;;;;;;5091985;28;20077;-73
2021/08/13 11:43:56;;;;;;;10.50;3.15;;;;;;;;;;5073337;28;20044;-72
2021/08/13 11:46:24;;;;;;;9.55;3.50;;;;;;;;;;5081999;28;20040;-72
2021/08/13 11:48:52;;;;;;;11.93;3.40;;;;;;;;;;5080098;28;20040;-72
2021/08/13 11:51:18;;;;;;;7.15;3.00;;;;;;;;;;5091449;28;20487;-73
2021/08/13 11:53:45;;;;;;;10.82;3.33;;;;;;;;;;5085621;28;20040;-74
2021/08/13 11:56:22;;;;;;;11.15;3.08;;;;;;;;;;5078979;28;20383;-73
2021/08/13 11:58:56;;;;;;;12.73;3.65;;;;;;;;;;5083642;28;20040;-74
2021/08/13 12:01:22;;;;;;;8.63;3.05;;;;;;;;;;5080166;28;20066;-73
2021/08/13 12:03:51;;;;;;;12.70;3.22;;;;;;;;;;5082987;28;20039;-74
2021/08/13 12:06:18;;;;;;;14.48;3.65;;;;;;;;;;5078371;28;20395;-73
2021/08/13 12:08:46;;;;;;;10.20;3.22;;;;;;;;;;5081271;28;20048;-73
2021/08/13 12:11:12;;;;;;;9.63;2.90;;;;;;;;;;5088037;28;20063;-73
2021/08/13 12:13:39;;;;;;;12.57;3.95;;;;;;;;;;5118342;27;20043;-73
2021/08/13 12:16:06;;;;;;;12.38;3.90;;;;;;;;;;5080135;28;20113;-73
2021/08/13 12:18:34;;;;;;;14.40;3.30;;;;;;;;;;5084531;28;20051;-73
2021/08/13 12:21:07;;;;;;;11.43;3.35;;;;;;;;;;5092543;28;20048;-74
2021/08/13 12:23:33;;;;;;;9.95;3.30;;;;;;;;;;5109765;27;20041;-73
2021/08/13 12:26:03;;;;;;;11.15;3.88;;;;;;;;;;5079596;28;20071;-72
2021/08/13 12:28:33;;;;;;;11.15;3.33;;;;;;;;;;5080182;28;20047;-73
2021/08/13 12:31:06;;;;;;;15.80;3.75;;;;;;;;;;5083463;28;20491;-73
2021/08/13 12:33:32;;;;;;;11.25;3.38;;;;;;;;;;5090244;28;20393;-74
2021/08/13 12:35:58;;;;;;;14.30;4.00;;;;;;;;;;5080290;28;20558;-73
2021/08/13 12:38:37;;;;;;;9.52;3.50;;;;;;;;;;5106041;28;20043;-75
2021/08/13 12:41:04;;;;;;;13.70;3.70;;;;;;;;;;5079195;28;20059;-73
2021/08/13 12:43:30;;;;;;;13.38;3.58;;;;;;;;;;5090183;28;20496;-72
2021/08/13 12:45:56;;;;;;;12.93;4.00;;;;;;;;;;5072311;28;20060;-73
2021/08/13 12:48:23;;;;;;;11.48;3.38;;;;;;;;;;5072813;28;20048;-73
2021/08/13 12:50:56;;;;;;;11.48;3.22;;;;;;;;;;5072913;28;20040;-73
2021/08/13 12:53:31;;;;;;;12.38;3.40;;;;;;;;;;5086495;28;20075;-74
2021/08/13 12:55:58;;;;;;;14.23;3.97;;;;;;;;;;5072406;28;20043;-73
2021/08/13 12:58:42;;;;;;;12.02;4.80;;;;;;;;;;5073570;28;20079;-75
2021/08/13 13:01:27;;;;;;;10.00;3.28;;;;;;;;;;5072445;28;20500;-72
2021/08/13 13:04:09;;;;;;;12.55;3.92;;;;;;;;;;5072383;28;20052;-72
2021/08/13 13:06:36;;;;;;;12.52;3.30;;;;;;;;;;5085706;28;20047;-73
2021/08/13 13:09:02;;;;;;;11.90;3.67;;;;;;;;;;5087401;28;20048;-74
2021/08/13 13:11:29;;;;;;;9.90;3.00;;;;;;;;;;5086625;28;20044;-76
2021/08/13 13:13:58;;;;;;;11.52;3.63;;;;;;;;;;5081285;28;20123;-74
2021/08/13 13:16:25;;;;;;;17.95;3.85;;;;;;;;;;5104032;28;20050;-79
2021/08/13 13:18:51;;;;;;;10.30;3.33;;;;;;;;;;5084288;28;20506;-76
2021/08/13 13:21:20;;;;;;;10.13;3.05;;;;;;;;;;5086378;28;20044;-78
2021/08/13 13:23:46;;;;;;;11.32;3.75;;;;;;;;;;5091784;28;20093;-75
2021/08/13 13:26:13;;;;;;;14.88;3.45;;;;;;;;;;5079474;28;20541;-75
2021/08/13 13:28:40;;;;;;;12.15;3.28;;;;;;;;;;5077173;28;20036;-76
2021/08/13 13:31:13;;;;;;;8.45;3.00;;;;;;;;;;5083291;28;20105;-75
2021/08/13 13:33:39;;;;;;;;;;;;;;;;;;5089759;28;20093;-75
2021/08/13 13:36:06;;;;;;;8.80;2.72;;;;;;;;;;5088038;28;19936;-72
2021/08/13 13:38:36;;;;;;;12.48;3.47;;;;;;;;;;5085002;28;20040;-72
2021/08/13 13:41:02;;;;;;;11.90;3.58;;;;;;;;;;5074669;28;20040;-72
2021/08/13 13:43:28;;;;;;;9.75;2.97;;;;;;;;;;5079524;28;20056;-72
2021/08/13 13:45:55;;;;;;;7.97;3.10;;;;;;;;;;5090633;28;20047;-71
2021/08/13 13:48:22;;;;;;;11.13;3.30;;;;;;;;;;5081332;28;20115;-72
2021/08/13 13:50:48;;;;;;;13.75;3.28;;;;;;;;;;5081474;28;20085;-74
2021/08/13 13:53:15;;;;;;;9.80;3.00;;;;;;;;;;5089558;28;20090;-73
2021/08/13 13:55:41;;;;;;;10.02;3.00;;;;;;;;;;5082549;28;20403;-72
2021/08/13 13:58:07;;;;;;;12.70;3.63;;;;;;;;;;5080517;28;20043;-72
2021/08/13 14:00:33;;;;;;;10.65;3.55;;;;;;;;;;5084009;28;20044;-72
2021/08/13 14:03:00;;;;;;;15.13;3.40;;;;;;;;;;5086376;28;20547;-72
2021/08/13 14:05:28;;;;;;;11.55;3.25;;;;;;;;;;5086315;28;20047;-72
2021/08/13 14:07:54;;;;;;;15.57;3.88;;;;;;;;;;5088097;28;20036;-74
2021/08/13 14:10:25;;;;;;;13.45;3.40;;;;;;;;;;5082970;28;20388;-74
2021/08/13 14:12:51;;;;;;;12.27;3.30;;;;;;;;;;5090133;28;20044;-74
2021/08/13 14:15:19;;;;;;;14.10;3.47;;;;;;;;;;5079591;28;20036;-73
2021/08/13 14:17:46;;;;;;;12.52;3.10;;;;;;;;;;5090315;28;20491;-74
2021/08/13 14:20:13;;;;;;;12.85;3.28;;;;;;;;;;5077234;28;20068;-74
2021/08/13 14:22:39;;;;;;;8.60;2.72;;;;;;;;;;5087276;28;20048;-73
2021/08/13 14:25:06;;;;;;;9.75;2.72;;;;;;;;;;5078442;28;20037;-73
2021/08/13 14:27:32;;;;;;;13.18;4.03;;;;;;;;;;5074143;28;20360;-73
2021/08/13 14:29:58;;;;;;;13.32;2.92;;;;;;;;;;5072234;28;20041;-73